sensor_id;sensor_type;location;lat;lon;timestamp;temperature;humidity
30288;DHT22;17103;48.316;11.558;2023-08-06T00:01:31;20.80;63.40
30288;DHT22;17103;48.316;11.558;2023-08-06T00:03:56;20.40;63.80
30288;DHT22;17103;48.316;11.558;2023-08-06T00:06:22;20.20;63.40
30288;DHT22;17103;48.316;11.558;2023-08-06T00:08:48;20.30;63.90
30288;DHT22;17103;48.316;11.558;2023-08-06T00:11:13;20.20;64.10
30288;DHT22;17103;48.316;11.558;2023-08-06T00:13:39;20.10;64.40
30288;DHT22;17103;48.316;11.558;2023-08-06T00:16:12;20.10;64.80
30288;DHT22;17103;48.316;11.558;2023-08-06T00:18:38;19.90;65.40
30288;DHT22;17103;48.316;11.558;2023-08-06T00:21:04;19.90;65.40
30288;DHT22;17103;48.316;11.558;2023-08-06T00:23:29;19.70;65.80
30288;DHT22;17103;48.316;11.558;2023-08-06T00:25:55;19.70;66.00
30288;DHT22;17103;48.316;11.558;2023-08-06T00:28:21;19.70;66.40
30288;DHT22;17103;48.316;11.558;2023-08-06T00:30:53;19.60;66.60
30288;DHT22;17103;48.316;11.558;2023-08-06T00:33:19;19.70;67.10
30288;DHT22;17103;48.316;11.558;2023-08-06T00:35:45;20.00;67.30
30288;DHT22;17103;48.316;11.558;2023-08-06T00:38:12;19.70;67.20
30288;DHT22;17103;48.316;11.558;2023-08-06T00:40:37;19.50;66.80
30288;DHT22;17103;48.316;11.558;2023-08-06T00:43:03;19.50;66.90
30288;DHT22;17103;48.316;11.558;2023-08-06T00:45:30;19.50;67.00
30288;DHT22;17103;48.316;11.558;2023-08-06T00:47:56;19.50;67.20
30288;DHT22;17103;48.316;11.558;2023-08-06T00:50:22;19.50;67.20
30288;DHT22;17103;48.316;11.558;2023-08-06T00:52:49;19.50;67.10
30288;DHT22;17103;48.316;11.558;2023-08-06T00:55:15;19.50;66.90
30288;DHT22;17103;48.316;11.558;2023-08-06T00:57:41;19.50;66.80
30288;DHT22;17103;48.316;11.558;2023-08-06T01:00:07;19.50;66.00
30288;DHT22;17103;48.316;11.558;2023-08-06T01:02:33;19.50;65.40
30288;DHT22;17103;48.316;11.558;2023-08-06T01:04:59;19.50;65.00
30288;DHT22;17103;48.316;11.558;2023-08-06T01:07:37;19.60;65.00
30288;DHT22;17103;48.316;11.558;2023-08-06T01:13:05;19.40;65.60
30288;DHT22;17103;48.316;11.558;2023-08-06T01:15:45;19.40;64.90
30288;DHT22;17103;48.316;11.558;2023-08-06T01:18:12;19.30;64.50
30288;DHT22;17103;48.316;11.558;2023-08-06T01:20:38;19.30;64.50
30288;DHT22;17103;48.316;11.558;2023-08-06T01:23:03;19.40;64.30
30288;DHT22;17103;48.316;11.558;2023-08-06T01:25:45;19.30;64.30
30288;DHT22;17103;48.316;11.558;2023-08-06T01:28:18;19.30;64.70
30288;DHT22;17103;48.316;11.558;2023-08-06T01:30:47;19.20;64.20
30288;DHT22;17103;48.316;11.558;2023-08-06T01:33:17;19.20;64.00
30288;DHT22;17103;48.316;11.558;2023-08-06T01:35:44;19.10;63.80
30288;DHT22;17103;48.316;11.558;2023-08-06T01:38:11;19.10;64.20
30288;DHT22;17103;48.316;11.558;2023-08-06T01:40:37;19.00;64.40
30288;DHT22;17103;48.316;11.558;2023-08-06T01:43:03;18.90;64.40
30288;DHT22;17103;48.316;11.558;2023-08-06T01:45:28;19.00;64.70
30288;DHT22;17103;48.316;11.558;2023-08-06T01:47:54;18.80;64.80
30288;DHT22;17103;48.316;11.558;2023-08-06T01:50:19;18.80;65.10
30288;DHT22;17103;48.316;11.558;2023-08-06T01:52:45;18.80;65.40
30288;DHT22;17103;48.316;11.558;2023-08-06T01:55:12;18.80;65.70
30288;DHT22;17103;48.316;11.558;2023-08-06T01:57:38;18.70;65.70
30288;DHT22;17103;48.316;11.558;2023-08-06T02:00:04;18.70;65.80
30288;DHT22;17103;48.316;11.558;2023-08-06T02:02:30;18.70;66.00
30288;DHT22;17103;48.316;11.558;2023-08-06T02:04:55;18.80;65.80
30288;DHT22;17103;48.316;11.558;2023-08-06T02:07:23;18.70;65.80
30288;DHT22;17103;48.316;11.558;2023-08-06T02:09:50;18.70;65.80
30288;DHT22;17103;48.316;11.558;2023-08-06T02:12:15;18.70;66.00
30288;DHT22;17103;48.316;11.558;2023-08-06T02:14:42;18.80;66.30
30288;DHT22;17103;48.316;11.558;2023-08-06T02:17:09;18.80;66.40
30288;DHT22;17103;48.316;11.558;2023-08-06T02:19:38;18.80;66.60
30288;DHT22;17103;48.316;11.558;2023-08-06T02:22:04;18.80;66.30
30288;DHT22;17103;48.316;11.558;2023-08-06T02:24:30;18.80;65.80
30288;DHT22;17103;48.316;11.558;2023-08-06T02:26:55;18.80;65.80
30288;DHT22;17103;48.316;11.558;2023-08-06T02:29:21;18.90;65.80
30288;DHT22;17103;48.316;11.558;2023-08-06T02:31:47;18.80;65.50
30288;DHT22;17103;48.316;11.558;2023-08-06T02:34:13;18.80;65.70
30288;DHT22;17103;48.316;11.558;2023-08-06T02:36:38;18.80;65.40
30288;DHT22;17103;48.316;11.558;2023-08-06T02:39:04;18.80;65.70
30288;DHT22;17103;48.316;11.558;2023-08-06T02:41:29;18.80;65.80
30288;DHT22;17103;48.316;11.558;2023-08-06T02:43:55;18.80;65.70
30288;DHT22;17103;48.316;11.558;2023-08-06T02:46:21;18.90;65.50
30288;DHT22;17103;48.316;11.558;2023-08-06T02:48:48;18.90;65.50
30288;DHT22;17103;48.316;11.558;2023-08-06T02:51:13;18.90;65.70
30288;DHT22;17103;48.316;11.558;2023-08-06T02:53:39;18.90;66.10
30288;DHT22;17103;48.316;11.558;2023-08-06T02:56:04;18.90;64.90
30288;DHT22;17103;48.316;11.558;2023-08-06T02:58:30;19.00;65.20
30288;DHT22;17103;48.316;11.558;2023-08-06T03:03:28;19.00;64.50
30288;DHT22;17103;48.316;11.558;2023-08-06T03:05:54;19.10;65.20
30288;DHT22;17103;48.316;11.558;2023-08-06T03:08:20;19.10;63.90
30288;DHT22;17103;48.316;11.558;2023-08-06T03:10:51;19.20;63.90
30288;DHT22;17103;48.316;11.558;2023-08-06T03:13:18;19.20;63.50
30288;DHT22;17103;48.316;11.558;2023-08-06T03:15:59;19.20;63.10
30288;DHT22;17103;48.316;11.558;2023-08-06T03:18:25;19.10;62.70
30288;DHT22;17103;48.316;11.558;2023-08-06T03:20:54;19.10;62.80
30288;DHT22;17103;48.316;11.558;2023-08-06T03:23:20;19.20;63.00
30288;DHT22;17103;48.316;11.558;2023-08-06T03:25:47;19.10;62.90
30288;DHT22;17103;48.316;11.558;2023-08-06T03:28:12;19.10;63.10
30288;DHT22;17103;48.316;11.558;2023-08-06T03:30:40;19.10;62.90
30288;DHT22;17103;48.316;11.558;2023-08-06T03:33:07;19.10;62.60
30288;DHT22;17103;48.316;11.558;2023-08-06T03:35:34;19.30;63.00
30288;DHT22;17103;48.316;11.558;2023-08-06T03:38:00;19.20;62.70
30288;DHT22;17103;48.316;11.558;2023-08-06T03:40:25;19.10;62.70
30288;DHT22;17103;48.316;11.558;2023-08-06T03:42:51;19.10;62.60
30288;DHT22;17103;48.316;11.558;2023-08-06T03:45:16;19.10;62.20
30288;DHT22;17103;48.316;11.558;2023-08-06T03:47:42;19.10;62.00
30288;DHT22;17103;48.316;11.558;2023-08-06T03:50:08;19.40;62.10
30288;DHT22;17103;48.316;11.558;2023-08-06T03:52:33;19.00;61.60
30288;DHT22;17103;48.316;11.558;2023-08-06T03:55:00;19.00;61.60
30288;DHT22;17103;48.316;11.558;2023-08-06T03:57:25;18.90;61.40
30288;DHT22;17103;48.316;11.558;2023-08-06T03:59:51;18.90;61.50
30288;DHT22;17103;48.316;11.558;2023-08-06T04:02:17;18.90;61.60
30288;DHT22;17103;48.316;11.558;2023-08-06T04:04:43;18.80;62.20
30288;DHT22;17103;48.316;11.558;2023-08-06T04:07:09;18.80;61.70
30288;DHT22;17103;48.316;11.558;2023-08-06T04:09:57;18.70;61.70
30288;DHT22;17103;48.316;11.558;2023-08-06T04:12:23;18.70;61.80
30288;DHT22;17103;48.316;11.558;2023-08-06T04:14:51;18.70;62.10
30288;DHT22;17103;48.316;11.558;2023-08-06T04:17:18;18.60;62.10
30288;DHT22;17103;48.316;11.558;2023-08-06T04:19:53;18.60;62.10
30288;DHT22;17103;48.316;11.558;2023-08-06T04:22:20;18.50;62.20
30288;DHT22;17103;48.316;11.558;2023-08-06T04:24:46;18.50;62.30
30288;DHT22;17103;48.316;11.558;2023-08-06T04:27:12;18.40;62.50
30288;DHT22;17103;48.316;11.558;2023-08-06T04:29:38;18.40;62.70
30288;DHT22;17103;48.316;11.558;2023-08-06T04:32:06;18.30;62.90
30288;DHT22;17103;48.316;11.558;2023-08-06T04:34:32;18.30;63.40
30288;DHT22;17103;48.316;11.558;2023-08-06T04:36:58;18.20;63.20
30288;DHT22;17103;48.316;11.558;2023-08-06T04:39:24;18.20;63.30
30288;DHT22;17103;48.316;11.558;2023-08-06T04:41:50;18.10;63.30
30288;DHT22;17103;48.316;11.558;2023-08-06T04:44:15;18.10;63.70
30288;DHT22;17103;48.316;11.558;2023-08-06T04:46:41;18.10;64.00
30288;DHT22;17103;48.316;11.558;2023-08-06T04:49:06;18.00;64.10
30288;DHT22;17103;48.316;11.558;2023-08-06T04:51:32;18.00;64.10
30288;DHT22;17103;48.316;11.558;2023-08-06T04:53:58;18.00;64.30
30288;DHT22;17103;48.316;11.558;2023-08-06T04:56:24;17.90;64.80
30288;DHT22;17103;48.316;11.558;2023-08-06T04:58:50;17.90;65.50
30288;DHT22;17103;48.316;11.558;2023-08-06T05:01:16;18.00;65.10
30288;DHT22;17103;48.316;11.558;2023-08-06T05:03:41;17.90;65.00
30288;DHT22;17103;48.316;11.558;2023-08-06T05:06:07;17.90;65.20
30288;DHT22;17103;48.316;11.558;2023-08-06T05:08:33;18.30;65.60
30288;DHT22;17103;48.316;11.558;2023-08-06T05:10:58;17.90;65.00
30288;DHT22;17103;48.316;11.558;2023-08-06T05:13:25;17.90;65.10
30288;DHT22;17103;48.316;11.558;2023-08-06T05:15:53;18.30;65.70
30288;DHT22;17103;48.316;11.558;2023-08-06T05:18:19;17.90;65.10
30288;DHT22;17103;48.316;11.558;2023-08-06T05:20:44;17.90;65.00
30288;DHT22;17103;48.316;11.558;2023-08-06T05:23:10;17.90;65.10
30288;DHT22;17103;48.316;11.558;2023-08-06T05:25:37;17.90;64.50
30288;DHT22;17103;48.316;11.558;2023-08-06T05:28:03;17.90;64.70
30288;DHT22;17103;48.316;11.558;2023-08-06T05:30:29;17.90;64.70
30288;DHT22;17103;48.316;11.558;2023-08-06T05:32:55;18.30;65.20
30288;DHT22;17103;48.316;11.558;2023-08-06T05:35:21;18.30;65.50
30288;DHT22;17103;48.316;11.558;2023-08-06T05:37:46;17.90;64.80
30288;DHT22;17103;48.316;11.558;2023-08-06T05:40:12;18.00;65.30
30288;DHT22;17103;48.316;11.558;2023-08-06T05:42:38;17.90;65.20
30288;DHT22;17103;48.316;11.558;2023-08-06T05:45:05;17.90;65.40
30288;DHT22;17103;48.316;11.558;2023-08-06T05:47:31;17.90;65.40
30288;DHT22;17103;48.316;11.558;2023-08-06T05:49:57;18.00;65.70
30288;DHT22;17103;48.316;11.558;2023-08-06T05:52:24;18.00;65.80
30288;DHT22;17103;48.316;11.558;2023-08-06T05:54:50;18.00;65.70
30288;DHT22;17103;48.316;11.558;2023-08-06T05:57:16;18.10;65.30
30288;DHT22;17103;48.316;11.558;2023-08-06T05:59:42;18.10;65.10
30288;DHT22;17103;48.316;11.558;2023-08-06T06:02:08;18.10;64.90
30288;DHT22;17103;48.316;11.558;2023-08-06T06:04:33;18.10;64.60
30288;DHT22;17103;48.316;11.558;2023-08-06T06:06:59;18.20;64.50
30288;DHT22;17103;48.316;11.558;2023-08-06T06:09:25;18.20;64.20
30288;DHT22;17103;48.316;11.558;2023-08-06T06:11:50;18.20;64.30
30288;DHT22;17103;48.316;11.558;2023-08-06T06:14:17;18.20;64.20
30288;DHT22;17103;48.316;11.558;2023-08-06T06:16:43;18.20;64.10
30288;DHT22;17103;48.316;11.558;2023-08-06T06:19:09;18.20;64.30
30288;DHT22;17103;48.316;11.558;2023-08-06T06:21:35;18.20;64.30
30288;DHT22;17103;48.316;11.558;2023-08-06T06:24:01;18.30;63.90
30288;DHT22;17103;48.316;11.558;2023-08-06T06:26:27;18.20;63.80
30288;DHT22;17103;48.316;11.558;2023-08-06T06:28:53;18.20;63.60
30288;DHT22;17103;48.316;11.558;2023-08-06T06:31:19;18.20;64.00
30288;DHT22;17103;48.316;11.558;2023-08-06T06:33:45;18.20;63.90
30288;DHT22;17103;48.316;11.558;2023-08-06T06:36:10;18.20;63.20
30288;DHT22;17103;48.316;11.558;2023-08-06T06:38:36;18.20;63.70
30288;DHT22;17103;48.316;11.558;2023-08-06T06:41:02;18.50;64.10
30288;DHT22;17103;48.316;11.558;2023-08-06T06:43:28;18.20;63.80
30288;DHT22;17103;48.316;11.558;2023-08-06T06:45:58;18.20;63.50
30288;DHT22;17103;48.316;11.558;2023-08-06T06:48:33;18.20;63.30
30288;DHT22;17103;48.316;11.558;2023-08-06T06:50:59;18.30;63.60
30288;DHT22;17103;48.316;11.558;2023-08-06T06:53:25;18.30;63.80
30288;DHT22;17103;48.316;11.558;2023-08-06T06:56:03;18.20;63.30
30288;DHT22;17103;48.316;11.558;2023-08-06T06:58:30;18.30;63.50
30288;DHT22;17103;48.316;11.558;2023-08-06T07:00:56;18.40;63.10
30288;DHT22;17103;48.316;11.558;2023-08-06T07:03:21;18.40;63.40
30288;DHT22;17103;48.316;11.558;2023-08-06T07:05:47;18.30;62.10
30288;DHT22;17103;48.316;11.558;2023-08-06T07:08:13;18.40;62.70
30288;DHT22;17103;48.316;11.558;2023-08-06T07:10:41;18.40;62.80
30288;DHT22;17103;48.316;11.558;2023-08-06T07:13:07;18.40;62.70
30288;DHT22;17103;48.316;11.558;2023-08-06T07:15:33;18.40;62.50
30288;DHT22;17103;48.316;11.558;2023-08-06T07:17:59;18.60;62.50
30288;DHT22;17103;48.316;11.558;2023-08-06T07:20:25;18.40;61.50
30288;DHT22;17103;48.316;11.558;2023-08-06T07:22:51;18.40;62.50
30288;DHT22;17103;48.316;11.558;2023-08-06T07:25:17;18.40;61.40
30288;DHT22;17103;48.316;11.558;2023-08-06T07:27:43;18.40;59.80
30288;DHT22;17103;48.316;11.558;2023-08-06T07:30:08;18.30;60.40
30288;DHT22;17103;48.316;11.558;2023-08-06T07:32:36;18.50;61.30
30288;DHT22;17103;48.316;11.558;2023-08-06T07:35:01;18.90;61.10
30288;DHT22;17103;48.316;11.558;2023-08-06T07:37:28;18.50;60.80
30288;DHT22;17103;48.316;11.558;2023-08-06T07:39:55;18.50;59.90
30288;DHT22;17103;48.316;11.558;2023-08-06T07:42:21;18.50;59.80
30288;DHT22;17103;48.316;11.558;2023-08-06T07:44:54;18.70;60.90
30288;DHT22;17103;48.316;11.558;2023-08-06T07:47:20;18.50;60.80
30288;DHT22;17103;48.316;11.558;2023-08-06T07:49:47;18.70;60.50
30288;DHT22;17103;48.316;11.558;2023-08-06T07:52:14;18.60;60.60
30288;DHT22;17103;48.316;11.558;2023-08-06T07:54:39;18.60;59.10
30288;DHT22;17103;48.316;11.558;2023-08-06T07:57:07;18.70;59.80
30288;DHT22;17103;48.316;11.558;2023-08-06T07:59:33;18.70;59.80
30288;DHT22;17103;48.316;11.558;2023-08-06T08:02:00;18.70;60.00
30288;DHT22;17103;48.316;11.558;2023-08-06T08:04:27;18.70;59.70
30288;DHT22;17103;48.316;11.558;2023-08-06T08:06:53;18.80;60.30
30288;DHT22;17103;48.316;11.558;2023-08-06T08:09:18;18.80;60.50
30288;DHT22;17103;48.316;11.558;2023-08-06T08:11:44;18.80;59.70
30288;DHT22;17103;48.316;11.558;2023-08-06T08:14:10;18.90;59.10
30288;DHT22;17103;48.316;11.558;2023-08-06T08:16:35;18.90;58.90
30288;DHT22;17103;48.316;11.558;2023-08-06T08:19:01;18.90;58.40
30288;DHT22;17103;48.316;11.558;2023-08-06T08:21:28;18.90;57.60
30288;DHT22;17103;48.316;11.558;2023-08-06T08:23:54;18.90;57.70
30288;DHT22;17103;48.316;11.558;2023-08-06T08:26:19;18.90;57.00
30288;DHT22;17103;48.316;11.558;2023-08-06T08:28:45;19.00;56.90
30288;DHT22;17103;48.316;11.558;2023-08-06T08:31:12;19.00;56.20
30288;DHT22;17103;48.316;11.558;2023-08-06T08:33:38;19.00;56.10
30288;DHT22;17103;48.316;11.558;2023-08-06T08:36:04;18.90;55.40
30288;DHT22;17103;48.316;11.558;2023-08-06T08:38:30;18.90;55.90
30288;DHT22;17103;48.316;11.558;2023-08-06T08:41:05;18.80;56.30
30288;DHT22;17103;48.316;11.558;2023-08-06T08:43:32;18.80;55.70
30288;DHT22;17103;48.316;11.558;2023-08-06T08:46:00;18.80;55.00
30288;DHT22;17103;48.316;11.558;2023-08-06T08:48:33;18.80;55.80
30288;DHT22;17103;48.316;11.558;2023-08-06T08:50:59;18.80;56.70
30288;DHT22;17103;48.316;11.558;2023-08-06T08:53:25;18.90;57.10
30288;DHT22;17103;48.316;11.558;2023-08-06T08:56:01;19.00;56.30
30288;DHT22;17103;48.316;11.558;2023-08-06T08:58:27;19.00;55.00
30288;DHT22;17103;48.316;11.558;2023-08-06T09:00:53;19.10;54.70
30288;DHT22;17103;48.316;11.558;2023-08-06T09:03:20;19.00;53.80
30288;DHT22;17103;48.316;11.558;2023-08-06T09:05:49;19.50;54.60
30288;DHT22;17103;48.316;11.558;2023-08-06T09:08:18;19.00;54.60
30288;DHT22;17103;48.316;11.558;2023-08-06T09:10:49;19.00;55.00
30288;DHT22;17103;48.316;11.558;2023-08-06T09:13:15;19.10;54.30
30288;DHT22;17103;48.316;11.558;2023-08-06T09:15:42;19.00;53.40
30288;DHT22;17103;48.316;11.558;2023-08-06T09:18:25;18.90;53.30
30288;DHT22;17103;48.316;11.558;2023-08-06T09:20:52;18.90;54.40
30288;DHT22;17103;48.316;11.558;2023-08-06T09:23:18;18.90;54.70
30288;DHT22;17103;48.316;11.558;2023-08-06T09:25:45;18.90;55.30
30288;DHT22;17103;48.316;11.558;2023-08-06T09:28:11;18.90;55.10
30288;DHT22;17103;48.316;11.558;2023-08-06T09:30:37;18.90;55.10
30288;DHT22;17103;48.316;11.558;2023-08-06T09:33:08;19.00;55.50
30288;DHT22;17103;48.316;11.558;2023-08-06T09:35:38;19.10;55.90
30288;DHT22;17103;48.316;11.558;2023-08-06T09:38:11;18.90;55.60
30288;DHT22;17103;48.316;11.558;2023-08-06T09:40:39;18.90;56.20
30288;DHT22;17103;48.316;11.558;2023-08-06T09:43:06;18.80;55.90
30288;DHT22;17103;48.316;11.558;2023-08-06T09:45:33;18.80;55.50
30288;DHT22;17103;48.316;11.558;2023-08-06T09:48:02;18.70;55.60
30288;DHT22;17103;48.316;11.558;2023-08-06T09:50:30;18.70;56.10
30288;DHT22;17103;48.316;11.558;2023-08-06T09:52:57;18.60;55.30
30288;DHT22;17103;48.316;11.558;2023-08-06T09:55:24;18.40;55.90
30288;DHT22;17103;48.316;11.558;2023-08-06T09:57:51;18.50;55.90
30288;DHT22;17103;48.316;11.558;2023-08-06T10:00:17;18.40;55.50
30288;DHT22;17103;48.316;11.558;2023-08-06T10:02:43;18.40;56.10
30288;DHT22;17103;48.316;11.558;2023-08-06T10:05:09;18.40;56.30
30288;DHT22;17103;48.316;11.558;2023-08-06T10:07:35;18.30;56.60
30288;DHT22;17103;48.316;11.558;2023-08-06T10:10:02;18.40;56.60
30288;DHT22;17103;48.316;11.558;2023-08-06T10:12:37;18.40;55.60
30288;DHT22;17103;48.316;11.558;2023-08-06T10:15:08;18.50;55.20
30288;DHT22;17103;48.316;11.558;2023-08-06T10:17:36;18.50;54.60
30288;DHT22;17103;48.316;11.558;2023-08-06T10:20:05;18.70;54.40
30288;DHT22;17103;48.316;11.558;2023-08-06T10:22:33;18.60;54.20
30288;DHT22;17103;48.316;11.558;2023-08-06T10:25:01;18.60;53.90
30288;DHT22;17103;48.316;11.558;2023-08-06T10:27:54;18.60;55.00
30288;DHT22;17103;48.316;11.558;2023-08-06T10:30:31;18.60;54.60
30288;DHT22;17103;48.316;11.558;2023-08-06T10:33:01;18.70;54.70
30288;DHT22;17103;48.316;11.558;2023-08-06T10:38:11;18.70;53.80
30288;DHT22;17103;48.316;11.558;2023-08-06T10:40:39;18.70;53.30
30288;DHT22;17103;48.316;11.558;2023-08-06T10:43:05;18.70;54.10
30288;DHT22;17103;48.316;11.558;2023-08-06T10:45:37;18.70;53.90
30288;DHT22;17103;48.316;11.558;2023-08-06T10:48:03;18.70;54.20
30288;DHT22;17103;48.316;11.558;2023-08-06T10:50:30;18.70;54.20
30288;DHT22;17103;48.316;11.558;2023-08-06T10:52:57;18.90;54.50
30288;DHT22;17103;48.316;11.558;2023-08-06T10:55:28;18.80;53.60
30288;DHT22;17103;48.316;11.558;2023-08-06T10:57:58;18.90;53.70
30288;DHT22;17103;48.316;11.558;2023-08-06T11:00:24;18.90;53.30
30288;DHT22;17103;48.316;11.558;2023-08-06T11:02:52;18.90;52.60
30288;DHT22;17103;48.316;11.558;2023-08-06T11:05:18;19.50;53.30
30288;DHT22;17103;48.316;11.558;2023-08-06T11:07:48;19.00;52.90
30288;DHT22;17103;48.316;11.558;2023-08-06T11:10:16;19.00;52.40
30288;DHT22;17103;48.316;11.558;2023-08-06T11:12:42;19.00;51.60
30288;DHT22;17103;48.316;11.558;2023-08-06T11:15:08;19.00;52.20
30288;DHT22;17103;48.316;11.558;2023-08-06T11:17:34;19.00;52.70
30288;DHT22;17103;48.316;11.558;2023-08-06T11:20:02;19.00;52.70
30288;DHT22;17103;48.316;11.558;2023-08-06T11:22:28;19.00;53.10
30288;DHT22;17103;48.316;11.558;2023-08-06T11:24:54;19.10;52.60
30288;DHT22;17103;48.316;11.558;2023-08-06T11:27:20;19.00;52.20
30288;DHT22;17103;48.316;11.558;2023-08-06T11:29:45;19.00;51.30
30288;DHT22;17103;48.316;11.558;2023-08-06T11:32:11;18.90;51.60
30288;DHT22;17103;48.316;11.558;2023-08-06T11:34:38;18.90;51.70
30288;DHT22;17103;48.316;11.558;2023-08-06T11:37:05;18.80;51.70
30288;DHT22;17103;48.316;11.558;2023-08-06T11:39:35;18.80;52.10
30288;DHT22;17103;48.316;11.558;2023-08-06T11:42:03;18.70;52.40
30288;DHT22;17103;48.316;11.558;2023-08-06T11:44:34;18.70;52.80
30288;DHT22;17103;48.316;11.558;2023-08-06T11:47:04;18.70;52.80
30288;DHT22;17103;48.316;11.558;2023-08-06T11:54:43;18.80;53.00
30288;DHT22;17103;48.316;11.558;2023-08-06T11:57:09;18.70;53.20
30288;DHT22;17103;48.316;11.558;2023-08-06T11:59:37;18.70;53.00
30288;DHT22;17103;48.316;11.558;2023-08-06T12:02:04;18.80;53.30
30288;DHT22;17103;48.316;11.558;2023-08-06T12:04:59;18.80;53.10
30288;DHT22;17103;48.316;11.558;2023-08-06T12:07:37;18.80;52.80
30288;DHT22;17103;48.316;11.558;2023-08-06T12:10:04;18.80;53.00
30288;DHT22;17103;48.316;11.558;2023-08-06T12:12:30;18.90;53.10
30288;DHT22;17103;48.316;11.558;2023-08-06T12:14:56;18.90;53.00
30288;DHT22;17103;48.316;11.558;2023-08-06T12:17:23;19.20;53.00
30288;DHT22;17103;48.316;11.558;2023-08-06T12:19:49;18.90;52.90
30288;DHT22;17103;48.316;11.558;2023-08-06T12:22:15;18.90;53.00
30288;DHT22;17103;48.316;11.558;2023-08-06T12:24:42;18.90;52.70
30288;DHT22;17103;48.316;11.558;2023-08-06T12:27:09;18.90;52.80
30288;DHT22;17103;48.316;11.558;2023-08-06T12:29:35;18.90;53.10
30288;DHT22;17103;48.316;11.558;2023-08-06T12:32:01;18.80;52.70
30288;DHT22;17103;48.316;11.558;2023-08-06T12:34:27;18.80;53.00
30288;DHT22;17103;48.316;11.558;2023-08-06T12:36:53;18.90;53.50
30288;DHT22;17103;48.316;11.558;2023-08-06T12:39:18;18.90;53.40
30288;DHT22;17103;48.316;11.558;2023-08-06T12:41:44;19.00;53.40
30288;DHT22;17103;48.316;11.558;2023-08-06T12:44:12;19.00;53.40
30288;DHT22;17103;48.316;11.558;2023-08-06T12:46:37;19.10;52.90
30288;DHT22;17103;48.316;11.558;2023-08-06T12:49:03;19.40;53.40
30288;DHT22;17103;48.316;11.558;2023-08-06T12:51:30;19.10;53.10
30288;DHT22;17103;48.316;11.558;2023-08-06T12:53:56;19.10;53.60
30288;DHT22;17103;48.316;11.558;2023-08-06T12:56:22;19.10;53.40
30288;DHT22;17103;48.316;11.558;2023-08-06T12:58:48;19.50;54.80
30288;DHT22;17103;48.316;11.558;2023-08-06T13:01:13;19.10;54.60
30288;DHT22;17103;48.316;11.558;2023-08-06T13:03:39;19.30;55.30
30288;DHT22;17103;48.316;11.558;2023-08-06T13:06:04;19.20;54.40
30288;DHT22;17103;48.316;11.558;2023-08-06T13:08:31;19.30;54.40
30288;DHT22;17103;48.316;11.558;2023-08-06T13:10:56;19.70;54.60
30288;DHT22;17103;48.316;11.558;2023-08-06T13:13:22;19.40;54.10
30288;DHT22;17103;48.316;11.558;2023-08-06T13:15:47;19.40;54.30
30288;DHT22;17103;48.316;11.558;2023-08-06T13:18:13;19.40;54.90
30288;DHT22;17103;48.316;11.558;2023-08-06T13:20:39;19.40;55.50
30288;DHT22;17103;48.316;11.558;2023-08-06T13:23:06;19.30;55.40
30288;DHT22;17103;48.316;11.558;2023-08-06T13:25:31;19.60;56.40
30288;DHT22;17103;48.316;11.558;2023-08-06T13:28:02;19.10;56.40
30288;DHT22;17103;48.316;11.558;2023-08-06T13:30:28;19.10;56.40
30288;DHT22;17103;48.316;11.558;2023-08-06T13:32:53;19.40;56.40
30288;DHT22;17103;48.316;11.558;2023-08-06T13:35:22;19.00;56.00
30288;DHT22;17103;48.316;11.558;2023-08-06T13:37:48;18.90;56.40
30288;DHT22;17103;48.316;11.558;2023-08-06T13:40:14;18.90;56.50
30288;DHT22;17103;48.316;11.558;2023-08-06T13:42:39;18.90;56.10
30288;DHT22;17103;48.316;11.558;2023-08-06T13:45:06;18.90;56.00
30288;DHT22;17103;48.316;11.558;2023-08-06T13:47:32;18.80;55.60
30288;DHT22;17103;48.316;11.558;2023-08-06T13:49:58;18.80;55.90
30288;DHT22;17103;48.316;11.558;2023-08-06T13:52:25;18.70;55.40
30288;DHT22;17103;48.316;11.558;2023-08-06T13:54:51;18.70;55.40
30288;DHT22;17103;48.316;11.558;2023-08-06T13:57:17;18.60;55.50
30288;DHT22;17103;48.316;11.558;2023-08-06T13:59:43;18.60;56.00
30288;DHT22;17103;48.316;11.558;2023-08-06T14:02:09;18.50;56.00
30288;DHT22;17103;48.316;11.558;2023-08-06T14:04:35;18.50;56.40
30288;DHT22;17103;48.316;11.558;2023-08-06T14:07:03;18.50;56.60
30288;DHT22;17103;48.316;11.558;2023-08-06T14:09:30;18.50;56.70
30288;DHT22;17103;48.316;11.558;2023-08-06T14:11:55;18.50;56.60
30288;DHT22;17103;48.316;11.558;2023-08-06T14:14:21;18.40;57.10
30288;DHT22;17103;48.316;11.558;2023-08-06T14:16:52;18.40;57.30
30288;DHT22;17103;48.316;11.558;2023-08-06T14:19:18;18.40;57.60
30288;DHT22;17103;48.316;11.558;2023-08-06T14:21:44;18.30;57.20
30288;DHT22;17103;48.316;11.558;2023-08-06T14:24:10;18.30;57.40
30288;DHT22;17103;48.316;11.558;2023-08-06T14:26:35;18.20;58.00
30288;DHT22;17103;48.316;11.558;2023-08-06T14:29:01;18.10;58.20
30288;DHT22;17103;48.316;11.558;2023-08-06T14:31:27;18.20;59.20
30288;DHT22;17103;48.316;11.558;2023-08-06T14:33:52;18.10;59.70
30288;DHT22;17103;48.316;11.558;2023-08-06T14:36:19;18.00;60.40
30288;DHT22;17103;48.316;11.558;2023-08-06T14:38:44;18.00;61.10
30288;DHT22;17103;48.316;11.558;2023-08-06T14:41:10;18.10;62.20
30288;DHT22;17103;48.316;11.558;2023-08-06T14:43:36;17.80;61.60
30288;DHT22;17103;48.316;11.558;2023-08-06T14:46:05;17.80;61.60
30288;DHT22;17103;48.316;11.558;2023-08-06T14:48:31;17.80;62.10
30288;DHT22;17103;48.316;11.558;2023-08-06T14:50:57;17.70;63.70
30288;DHT22;17103;48.316;11.558;2023-08-06T14:53:22;17.70;63.90
30288;DHT22;17103;48.316;11.558;2023-08-06T14:55:48;17.50;65.20
30288;DHT22;17103;48.316;11.558;2023-08-06T14:58:14;17.70;65.90
30288;DHT22;17103;48.316;11.558;2023-08-06T15:00:40;17.50;66.30
30288;DHT22;17103;48.316;11.558;2023-08-06T15:03:06;17.30;66.80
30288;DHT22;17103;48.316;11.558;2023-08-06T15:05:31;18.10;68.00
30288;DHT22;17103;48.316;11.558;2023-08-06T15:07:57;17.10;67.20
30288;DHT22;17103;48.316;11.558;2023-08-06T15:10:23;17.10;68.10
30288;DHT22;17103;48.316;11.558;2023-08-06T15:12:48;17.00;68.60
30288;DHT22;17103;48.316;11.558;2023-08-06T15:15:14;17.00;69.50
30288;DHT22;17103;48.316;11.558;2023-08-06T15:17:40;16.90;69.20
30288;DHT22;17103;48.316;11.558;2023-08-06T15:20:06;16.80;69.80
30288;DHT22;17103;48.316;11.558;2023-08-06T15:22:32;16.80;70.10
30288;DHT22;17103;48.316;11.558;2023-08-06T15:25:00;16.70;70.30
30288;DHT22;17103;48.316;11.558;2023-08-06T15:27:25;16.70;71.30